バルセロナ の空港の天気 - METARとTAF

バルセロナ・エル・プラット国際空港 ( LEBL / BCN ) - スペイン バルセロナ
飛行場実況気象(Metar)
観測時間01/20 04:30 CET (01/20 03:30 UTC)
風向・風速北北西 4m/s
視程10km以上
天気現象
少しの雲 雲底高度 610m
全天の4割程度の雲 雲底高度 1520m
気温7℃
湿度87%
気圧1008hPa
METARLEBL 200330Z 33008KT 9999 FEW020 SCT050 07/05 Q1008 NOSIG
過去の天気等 Google飛行場航空写真 Wunderground天気予報

過去48時間のMETAR

飛行場予報(TAF)
発表時間: 1/20 00:00 CET (1/19 23:00 UTC)
予報対象時間: 20日1時 CET ~ 21日1時 CET
風向・風速北北西 4m/s
視程10km以上
少しの雲 雲底高度 610m
20日1時 CET ~ 20日17時 CET に一時的に
視程4000m
天気現象
全天の8割程度の雲 雲底高度 610m
全天を覆う雲 雲底高度 1220m
20日7時 CET ~ 20日10時 CET に徐々に
風向・風速北東 6m/s 瞬間風速 13m/s
20日21時 CET ~ 20日23時 CET に徐々に
風向・風速北北西 3m/s
TAF LEBL 192300Z 2000/2024 34007KT 9999 FEW020 TX12/2012Z TN05/2006Z
TEMPO 2000/2016 4000 RA BKN020 OVC040
BECMG 2006/2009 04012G25KT
BECMG 2020/2022 34006KT